Weather at Hosea Kutako International Airport

Public forecast

Using degrees Celsius for public forecast. Weather courtesy of forecast.io.

Current aviation weather report (METAR) for Hosea Kutako International Airport

Report is more than 6 hours old.

2022/11/14 15:00 (retrieved 2 years ago)

FYWH 141500Z 01009KT CAVOK 32/03 Q1020 NOSIG

Aviation forecast (TAF) for Hosea Kutako International Airport

Forecast is more than 12 hours old.

2023/02/22 18:09 (retrieved 1 year ago)

TAF FYWB 221600Z 2218/2318 20009KT CAVOK TAF FYWH 221600Z 2218/2318 13007KT 9999 FEW050